sensor_id;sensor_type;location;lat;lon;timestamp;P1;durP1;ratioP1;P2;durP2;ratioP2
22737;SDS011;11536;50.860;4.286;2023-03-20T00:01:39;10.93;;;4.93;;
22737;SDS011;11536;50.860;4.286;2023-03-20T00:04:05;10.15;;;5.20;;
22737;SDS011;11536;50.860;4.286;2023-03-20T00:06:31;15.27;;;5.53;;
22737;SDS011;11536;50.860;4.286;2023-03-20T00:08:56;14.73;;;5.70;;
22737;SDS011;11536;50.860;4.286;2023-03-20T00:13:51;11.98;;;4.85;;
22737;SDS011;11536;50.860;4.286;2023-03-20T00:16:18;14.55;;;5.10;;
22737;SDS011;11536;50.860;4.286;2023-03-20T00:18:45;10.73;;;4.88;;
22737;SDS011;11536;50.860;4.286;2023-03-20T00:21:19;9.65;;;4.47;;
22737;SDS011;11536;50.860;4.286;2023-03-20T00:23:45;10.07;;;4.80;;
22737;SDS011;11536;50.860;4.286;2023-03-20T00:26:12;11.77;;;5.05;;
22737;SDS011;11536;50.860;4.286;2023-03-20T00:28:45;10.68;;;4.85;;
22737;SDS011;11536;50.860;4.286;2023-03-20T00:33:55;11.23;;;5.22;;
22737;SDS011;11536;50.860;4.286;2023-03-20T00:36:23;13.00;;;5.35;;
22737;SDS011;11536;50.860;4.286;2023-03-20T00:38:49;12.98;;;4.80;;
22737;SDS011;11536;50.860;4.286;2023-03-20T00:41:20;11.88;;;4.90;;
22737;SDS011;11536;50.860;4.286;2023-03-20T00:43:52;13.77;;;5.35;;
22737;SDS011;11536;50.860;4.286;2023-03-20T00:46:23;11.77;;;5.70;;
22737;SDS011;11536;50.860;4.286;2023-03-20T00:48:50;14.07;;;5.25;;
22737;SDS011;11536;50.860;4.286;2023-03-20T00:51:16;13.55;;;5.40;;
22737;SDS011;11536;50.860;4.286;2023-03-20T00:53:43;14.60;;;5.35;;
22737;SDS011;11536;50.860;4.286;2023-03-20T00:56:26;13.65;;;5.38;;
22737;SDS011;11536;50.860;4.286;2023-03-20T00:58:55;15.82;;;5.30;;
22737;SDS011;11536;50.860;4.286;2023-03-20T01:01:22;13.52;;;5.65;;
22737;SDS011;11536;50.860;4.286;2023-03-20T01:03:48;14.23;;;5.32;;
22737;SDS011;11536;50.860;4.286;2023-03-20T01:06:14;11.10;;;5.90;;
22737;SDS011;11536;50.860;4.286;2023-03-20T01:08:39;12.95;;;5.18;;
22737;SDS011;11536;50.860;4.286;2023-03-20T01:11:05;13.52;;;5.55;;
22737;SDS011;11536;50.860;4.286;2023-03-20T01:13:33;12.88;;;4.90;;
22737;SDS011;11536;50.860;4.286;2023-03-20T01:15:59;13.77;;;5.45;;
22737;SDS011;11536;50.860;4.286;2023-03-20T01:18:26;11.13;;;4.72;;
22737;SDS011;11536;50.860;4.286;2023-03-20T01:20:51;11.88;;;5.20;;
22737;SDS011;11536;50.860;4.286;2023-03-20T01:23:17;14.02;;;5.30;;
22737;SDS011;11536;50.860;4.286;2023-03-20T01:25:43;15.07;;;5.32;;
22737;SDS011;11536;50.860;4.286;2023-03-20T01:28:14;10.82;;;5.05;;
22737;SDS011;11536;50.860;4.286;2023-03-20T01:30:47;13.30;;;5.30;;
22737;SDS011;11536;50.860;4.286;2023-03-20T01:33:17;12.65;;;4.90;;
22737;SDS011;11536;50.860;4.286;2023-03-20T01:35:48;13.30;;;5.53;;
22737;SDS011;11536;50.860;4.286;2023-03-20T01:38:18;13.85;;;5.05;;
22737;SDS011;11536;50.860;4.286;2023-03-20T01:43:23;14.52;;;5.78;;
22737;SDS011;11536;50.860;4.286;2023-03-20T01:51:25;13.65;;;5.18;;
22737;SDS011;11536;50.860;4.286;2023-03-20T01:53:53;11.80;;;4.97;;
22737;SDS011;11536;50.860;4.286;2023-03-20T01:56:24;15.52;;;5.80;;
22737;SDS011;11536;50.860;4.286;2023-03-20T01:58:52;14.23;;;5.57;;
22737;SDS011;11536;50.860;4.286;2023-03-20T02:01:27;14.35;;;6.05;;
22737;SDS011;11536;50.860;4.286;2023-03-20T02:03:54;12.95;;;5.40;;
22737;SDS011;11536;50.860;4.286;2023-03-20T02:06:21;12.45;;;5.35;;
22737;SDS011;11536;50.860;4.286;2023-03-20T02:08:49;13.50;;;5.05;;
22737;SDS011;11536;50.860;4.286;2023-03-20T02:11:16;13.13;;;5.40;;
22737;SDS011;11536;50.860;4.286;2023-03-20T02:13:44;12.43;;;5.38;;
22737;SDS011;11536;50.860;4.286;2023-03-20T02:16:13;14.95;;;5.97;;
22737;SDS011;11536;50.860;4.286;2023-03-20T02:18:44;14.10;;;5.70;;
22737;SDS011;11536;50.860;4.286;2023-03-20T02:35:29;12.90;;;5.78;;
22737;SDS011;11536;50.860;4.286;2023-03-20T02:51:46;14.23;;;6.13;;
22737;SDS011;11536;50.860;4.286;2023-03-20T02:54:23;15.07;;;6.32;;
22737;SDS011;11536;50.860;4.286;2023-03-20T03:02:09;14.43;;;6.03;;
22737;SDS011;11536;50.860;4.286;2023-03-20T03:04:39;14.87;;;6.43;;
22737;SDS011;11536;50.860;4.286;2023-03-20T03:07:11;18.38;;;6.63;;
22737;SDS011;11536;50.860;4.286;2023-03-20T03:09:41;17.58;;;6.40;;
22737;SDS011;11536;50.860;4.286;2023-03-20T03:12:22;17.20;;;6.40;;
22737;SDS011;11536;50.860;4.286;2023-03-20T03:14:54;15.63;;;6.43;;
22737;SDS011;11536;50.860;4.286;2023-03-20T03:17:24;16.30;;;6.85;;
22737;SDS011;11536;50.860;4.286;2023-03-20T03:19:56;17.45;;;6.57;;
22737;SDS011;11536;50.860;4.286;2023-03-20T03:22:25;18.50;;;6.50;;
22737;SDS011;11536;50.860;4.286;2023-03-20T03:24:52;14.43;;;6.25;;
22737;SDS011;11536;50.860;4.286;2023-03-20T03:27:19;16.35;;;6.35;;
22737;SDS011;11536;50.860;4.286;2023-03-20T03:29:59;17.75;;;7.05;;
22737;SDS011;11536;50.860;4.286;2023-03-20T03:32:33;16.80;;;6.28;;
22737;SDS011;11536;50.860;4.286;2023-03-20T03:35:03;15.93;;;6.40;;
22737;SDS011;11536;50.860;4.286;2023-03-20T03:40:22;18.77;;;6.90;;
22737;SDS011;11536;50.860;4.286;2023-03-20T03:43:34;15.45;;;6.20;;
22737;SDS011;11536;50.860;4.286;2023-03-20T03:46:05;19.55;;;6.82;;
22737;SDS011;11536;50.860;4.286;2023-03-20T03:48:39;15.70;;;6.25;;
22737;SDS011;11536;50.860;4.286;2023-03-20T03:53:41;15.38;;;6.28;;
22737;SDS011;11536;50.860;4.286;2023-03-20T03:56:13;16.73;;;6.28;;
22737;SDS011;11536;50.860;4.286;2023-03-20T03:58:46;17.27;;;6.07;;
22737;SDS011;11536;50.860;4.286;2023-03-20T04:01:15;14.15;;;5.85;;
22737;SDS011;11536;50.860;4.286;2023-03-20T04:03:48;14.82;;;6.30;;
22737;SDS011;11536;50.860;4.286;2023-03-20T04:06:16;13.25;;;6.00;;
22737;SDS011;11536;50.860;4.286;2023-03-20T04:08:43;15.00;;;5.97;;
22737;SDS011;11536;50.860;4.286;2023-03-20T04:11:15;20.80;;;6.30;;
22737;SDS011;11536;50.860;4.286;2023-03-20T04:13:43;13.82;;;5.47;;
22737;SDS011;11536;50.860;4.286;2023-03-20T04:16:11;15.68;;;5.40;;
22737;SDS011;11536;50.860;4.286;2023-03-20T04:18:38;14.40;;;5.32;;
22737;SDS011;11536;50.860;4.286;2023-03-20T04:21:04;16.73;;;5.43;;
22737;SDS011;11536;50.860;4.286;2023-03-20T04:23:30;12.50;;;4.95;;
22737;SDS011;11536;50.860;4.286;2023-03-20T04:25:57;17.58;;;5.38;;
22737;SDS011;11536;50.860;4.286;2023-03-20T04:28:23;15.35;;;6.07;;
22737;SDS011;11536;50.860;4.286;2023-03-20T04:30:52;18.58;;;5.20;;
22737;SDS011;11536;50.860;4.286;2023-03-20T04:33:22;18.60;;;4.53;;
22737;SDS011;11536;50.860;4.286;2023-03-20T04:35:48;16.05;;;4.47;;
22737;SDS011;11536;50.860;4.286;2023-03-20T04:38:14;14.43;;;4.85;;
22737;SDS011;11536;50.860;4.286;2023-03-20T04:40:41;12.55;;;4.50;;
22737;SDS011;11536;50.860;4.286;2023-03-20T04:43:07;14.27;;;4.45;;
22737;SDS011;11536;50.860;4.286;2023-03-20T04:45:33;12.93;;;4.70;;
22737;SDS011;11536;50.860;4.286;2023-03-20T04:47:58;11.82;;;5.45;;
22737;SDS011;11536;50.860;4.286;2023-03-20T04:50:24;14.40;;;4.15;;
22737;SDS011;11536;50.860;4.286;2023-03-20T04:52:50;10.75;;;4.43;;
22737;SDS011;11536;50.860;4.286;2023-03-20T04:55:16;15.55;;;5.63;;
22737;SDS011;11536;50.860;4.286;2023-03-20T04:57:41;12.73;;;5.00;;
22737;SDS011;11536;50.860;4.286;2023-03-20T05:00:07;12.95;;;4.88;;
22737;SDS011;11536;50.860;4.286;2023-03-20T05:02:33;14.07;;;5.03;;
22737;SDS011;11536;50.860;4.286;2023-03-20T05:04:59;11.15;;;4.65;;
22737;SDS011;11536;50.860;4.286;2023-03-20T05:07:25;18.58;;;5.28;;
22737;SDS011;11536;50.860;4.286;2023-03-20T05:09:50;14.57;;;4.03;;
22737;SDS011;11536;50.860;4.286;2023-03-20T05:12:19;12.60;;;5.13;;
22737;SDS011;11536;50.860;4.286;2023-03-20T05:14:47;12.98;;;4.15;;
22737;SDS011;11536;50.860;4.286;2023-03-20T05:17:12;13.55;;;4.57;;
22737;SDS011;11536;50.860;4.286;2023-03-20T05:19:38;15.65;;;5.45;;
22737;SDS011;11536;50.860;4.286;2023-03-20T05:22:05;10.32;;;4.13;;
22737;SDS011;11536;50.860;4.286;2023-03-20T05:24:30;10.45;;;4.43;;
22737;SDS011;11536;50.860;4.286;2023-03-20T05:26:56;12.57;;;4.07;;
22737;SDS011;11536;50.860;4.286;2023-03-20T05:29:21;13.05;;;3.78;;
22737;SDS011;11536;50.860;4.286;2023-03-20T05:31:47;16.42;;;7.18;;
22737;SDS011;11536;50.860;4.286;2023-03-20T05:34:13;11.32;;;3.75;;
22737;SDS011;11536;50.860;4.286;2023-03-20T05:36:38;12.77;;;4.07;;
22737;SDS011;11536;50.860;4.286;2023-03-20T05:39:04;10.60;;;4.15;;
22737;SDS011;11536;50.860;4.286;2023-03-20T05:41:30;9.95;;;3.33;;
22737;SDS011;11536;50.860;4.286;2023-03-20T05:43:55;13.23;;;3.85;;
22737;SDS011;11536;50.860;4.286;2023-03-20T05:46:21;13.25;;;3.50;;
22737;SDS011;11536;50.860;4.286;2023-03-20T05:48:47;11.95;;;3.80;;
22737;SDS011;11536;50.860;4.286;2023-03-20T05:51:13;10.43;;;3.45;;
22737;SDS011;11536;50.860;4.286;2023-03-20T05:53:38;11.27;;;3.70;;
22737;SDS011;11536;50.860;4.286;2023-03-20T05:56:04;9.63;;;3.13;;
22737;SDS011;11536;50.860;4.286;2023-03-20T05:58:30;9.80;;;3.20;;
22737;SDS011;11536;50.860;4.286;2023-03-20T06:00:56;10.85;;;3.80;;
22737;SDS011;11536;50.860;4.286;2023-03-20T06:03:22;12.27;;;3.20;;
22737;SDS011;11536;50.860;4.286;2023-03-20T06:05:48;9.10;;;3.03;;
22737;SDS011;11536;50.860;4.286;2023-03-20T06:08:13;15.80;;;4.00;;
22737;SDS011;11536;50.860;4.286;2023-03-20T06:10:39;15.80;;;3.85;;
22737;SDS011;11536;50.860;4.286;2023-03-20T06:13:05;16.25;;;4.10;;
22737;SDS011;11536;50.860;4.286;2023-03-20T06:15:31;14.10;;;3.75;;
22737;SDS011;11536;50.860;4.286;2023-03-20T06:17:56;9.73;;;3.60;;
22737;SDS011;11536;50.860;4.286;2023-03-20T06:20:23;12.43;;;3.47;;
22737;SDS011;11536;50.860;4.286;2023-03-20T06:22:50;11.15;;;3.13;;
22737;SDS011;11536;50.860;4.286;2023-03-20T06:25:15;10.95;;;3.58;;
22737;SDS011;11536;50.860;4.286;2023-03-20T06:27:41;15.50;;;3.53;;
22737;SDS011;11536;50.860;4.286;2023-03-20T06:30:07;8.73;;;3.25;;
22737;SDS011;11536;50.860;4.286;2023-03-20T06:32:33;9.77;;;3.05;;
22737;SDS011;11536;50.860;4.286;2023-03-20T06:34:59;12.00;;;3.45;;
22737;SDS011;11536;50.860;4.286;2023-03-20T06:37:25;12.10;;;3.13;;
22737;SDS011;11536;50.860;4.286;2023-03-20T06:39:50;10.80;;;2.88;;
22737;SDS011;11536;50.860;4.286;2023-03-20T06:42:16;12.57;;;2.97;;
22737;SDS011;11536;50.860;4.286;2023-03-20T06:44:42;9.70;;;2.80;;
22737;SDS011;11536;50.860;4.286;2023-03-20T06:47:08;7.93;;;2.20;;
22737;SDS011;11536;50.860;4.286;2023-03-20T06:49:33;12.85;;;3.40;;
22737;SDS011;11536;50.860;4.286;2023-03-20T06:51:59;8.80;;;3.72;;
22737;SDS011;11536;50.860;4.286;2023-03-20T06:54:25;9.27;;;2.60;;
22737;SDS011;11536;50.860;4.286;2023-03-20T06:56:51;8.63;;;2.17;;
22737;SDS011;11536;50.860;4.286;2023-03-20T06:59:17;9.70;;;2.35;;
22737;SDS011;11536;50.860;4.286;2023-03-20T07:01:42;10.95;;;3.00;;
22737;SDS011;11536;50.860;4.286;2023-03-20T07:04:08;9.23;;;2.63;;
22737;SDS011;11536;50.860;4.286;2023-03-20T07:06:34;11.10;;;2.50;;
22737;SDS011;11536;50.860;4.286;2023-03-20T07:08:59;8.55;;;2.58;;
22737;SDS011;11536;50.860;4.286;2023-03-20T07:11:25;13.43;;;2.78;;
22737;SDS011;11536;50.860;4.286;2023-03-20T07:13:52;10.43;;;2.30;;
22737;SDS011;11536;50.860;4.286;2023-03-20T07:16:18;8.82;;;2.55;;
22737;SDS011;11536;50.860;4.286;2023-03-20T07:18:43;11.82;;;2.47;;
22737;SDS011;11536;50.860;4.286;2023-03-20T07:21:09;8.90;;;2.10;;
22737;SDS011;11536;50.860;4.286;2023-03-20T07:23:40;13.75;;;2.60;;
22737;SDS011;11536;50.860;4.286;2023-03-20T07:26:06;7.00;;;2.50;;
22737;SDS011;11536;50.860;4.286;2023-03-20T07:28:31;13.20;;;2.42;;
22737;SDS011;11536;50.860;4.286;2023-03-20T07:30:57;9.40;;;2.45;;
22737;SDS011;11536;50.860;4.286;2023-03-20T07:33:22;9.50;;;2.45;;
22737;SDS011;11536;50.860;4.286;2023-03-20T07:35:54;7.22;;;1.88;;
22737;SDS011;11536;50.860;4.286;2023-03-20T07:38:20;10.90;;;2.58;;
22737;SDS011;11536;50.860;4.286;2023-03-20T07:40:46;11.82;;;2.20;;
22737;SDS011;11536;50.860;4.286;2023-03-20T07:43:13;8.68;;;2.35;;
22737;SDS011;11536;50.860;4.286;2023-03-20T07:45:39;9.45;;;2.40;;
22737;SDS011;11536;50.860;4.286;2023-03-20T07:48:05;5.55;;;1.80;;
22737;SDS011;11536;50.860;4.286;2023-03-20T07:50:30;13.57;;;2.90;;
22737;SDS011;11536;50.860;4.286;2023-03-20T07:52:56;7.22;;;2.00;;
22737;SDS011;11536;50.860;4.286;2023-03-20T07:55:22;6.35;;;2.03;;
22737;SDS011;11536;50.860;4.286;2023-03-20T07:57:48;9.00;;;2.17;;
22737;SDS011;11536;50.860;4.286;2023-03-20T08:00:14;9.30;;;2.42;;
22737;SDS011;11536;50.860;4.286;2023-03-20T08:02:41;9.20;;;2.25;;
22737;SDS011;11536;50.860;4.286;2023-03-20T08:05:07;9.32;;;2.08;;
22737;SDS011;11536;50.860;4.286;2023-03-20T08:07:33;10.57;;;2.20;;
22737;SDS011;11536;50.860;4.286;2023-03-20T08:09:59;11.98;;;2.58;;
22737;SDS011;11536;50.860;4.286;2023-03-20T08:12:25;8.38;;;2.30;;
22737;SDS011;11536;50.860;4.286;2023-03-20T08:14:51;6.57;;;1.90;;
22737;SDS011;11536;50.860;4.286;2023-03-20T08:17:17;8.93;;;1.50;;
22737;SDS011;11536;50.860;4.286;2023-03-20T08:19:43;8.82;;;2.13;;
22737;SDS011;11536;50.860;4.286;2023-03-20T08:22:09;9.35;;;1.80;;
22737;SDS011;11536;50.860;4.286;2023-03-20T08:24:34;10.35;;;1.75;;
22737;SDS011;11536;50.860;4.286;2023-03-20T08:27:00;6.18;;;2.20;;
22737;SDS011;11536;50.860;4.286;2023-03-20T08:29:26;9.10;;;1.98;;
22737;SDS011;11536;50.860;4.286;2023-03-20T08:31:51;8.02;;;1.75;;
22737;SDS011;11536;50.860;4.286;2023-03-20T08:34:17;7.18;;;1.95;;
22737;SDS011;11536;50.860;4.286;2023-03-20T08:36:43;5.90;;;1.90;;
22737;SDS011;11536;50.860;4.286;2023-03-20T08:39:08;7.22;;;2.30;;
22737;SDS011;11536;50.860;4.286;2023-03-20T08:41:37;6.50;;;2.30;;
22737;SDS011;11536;50.860;4.286;2023-03-20T08:44:04;4.15;;;1.70;;
22737;SDS011;11536;50.860;4.286;2023-03-20T08:46:31;5.88;;;2.20;;
22737;SDS011;11536;50.860;4.286;2023-03-20T08:49:00;9.25;;;2.22;;
22737;SDS011;11536;50.860;4.286;2023-03-20T08:51:26;10.70;;;2.30;;
22737;SDS011;11536;50.860;4.286;2023-03-20T08:53:52;6.25;;;2.03;;
22737;SDS011;11536;50.860;4.286;2023-03-20T08:56:18;11.90;;;2.25;;
22737;SDS011;11536;50.860;4.286;2023-03-20T08:58:43;6.18;;;2.13;;
22737;SDS011;11536;50.860;4.286;2023-03-20T09:01:09;7.70;;;1.92;;
22737;SDS011;11536;50.860;4.286;2023-03-20T09:03:35;11.13;;;2.63;;
22737;SDS011;11536;50.860;4.286;2023-03-20T09:06:03;11.50;;;2.85;;
22737;SDS011;11536;50.860;4.286;2023-03-20T09:08:31;7.68;;;2.50;;
22737;SDS011;11536;50.860;4.286;2023-03-20T09:10:57;8.15;;;3.08;;
22737;SDS011;11536;50.860;4.286;2023-03-20T09:13:23;11.45;;;2.10;;
22737;SDS011;11536;50.860;4.286;2023-03-20T09:15:50;11.23;;;3.15;;
22737;SDS011;11536;50.860;4.286;2023-03-20T09:18:19;7.55;;;2.38;;
22737;SDS011;11536;50.860;4.286;2023-03-20T09:20:46;9.20;;;2.47;;
22737;SDS011;11536;50.860;4.286;2023-03-20T09:23:12;8.88;;;1.95;;
22737;SDS011;11536;50.860;4.286;2023-03-20T09:25:37;7.75;;;2.47;;
22737;SDS011;11536;50.860;4.286;2023-03-20T09:28:03;12.00;;;2.47;;
22737;SDS011;11536;50.860;4.286;2023-03-20T09:30:28;6.18;;;2.00;;
22737;SDS011;11536;50.860;4.286;2023-03-20T09:32:54;11.90;;;2.13;;
22737;SDS011;11536;50.860;4.286;2023-03-20T09:35:20;11.35;;;2.85;;
22737;SDS011;11536;50.860;4.286;2023-03-20T09:37:46;9.40;;;2.50;;
22737;SDS011;11536;50.860;4.286;2023-03-20T09:52:02;6.65;;;1.92;;
22737;SDS011;11536;50.860;4.286;2023-03-20T09:54:40;11.90;;;2.88;;
22737;SDS011;11536;50.860;4.286;2023-03-20T09:57:19;8.43;;;2.30;;
22737;SDS011;11536;50.860;4.286;2023-03-20T09:59:58;9.93;;;2.05;;
22737;SDS011;11536;50.860;4.286;2023-03-20T10:05:23;7.90;;;2.50;;
22737;SDS011;11536;50.860;4.286;2023-03-20T10:07:55;6.88;;;1.90;;
22737;SDS011;11536;50.860;4.286;2023-03-20T10:13:27;10.57;;;2.83;;
22737;SDS011;11536;50.860;4.286;2023-03-20T10:21:41;10.38;;;2.30;;
22737;SDS011;11536;50.860;4.286;2023-03-20T10:24:15;6.88;;;2.17;;
22737;SDS011;11536;50.860;4.286;2023-03-20T10:26:48;8.40;;;1.95;;
22737;SDS011;11536;50.860;4.286;2023-03-20T10:40:27;4.68;;;1.95;;
22737;SDS011;11536;50.860;4.286;2023-03-20T10:43:01;7.45;;;2.08;;
22737;SDS011;11536;50.860;4.286;2023-03-20T10:45:32;9.93;;;1.75;;
22737;SDS011;11536;50.860;4.286;2023-03-20T10:48:15;7.53;;;2.08;;
22737;SDS011;11536;50.860;4.286;2023-03-20T10:50:46;8.30;;;1.85;;
22737;SDS011;11536;50.860;4.286;2023-03-20T10:54:03;7.53;;;2.17;;
22737;SDS011;11536;50.860;4.286;2023-03-20T10:56:09;8.07;;;1.90;;
22737;SDS011;11536;50.860;4.286;2023-03-20T10:59:29;11.95;;;2.10;;
22737;SDS011;11536;50.860;4.286;2023-03-20T11:01:52;8.85;;;2.28;;
22737;SDS011;11536;50.860;4.286;2023-03-20T11:04:17;9.98;;;2.45;;
22737;SDS011;11536;50.860;4.286;2023-03-20T11:09:19;5.95;;;1.77;;
22737;SDS011;11536;50.860;4.286;2023-03-20T11:11:50;7.70;;;1.90;;
22737;SDS011;11536;50.860;4.286;2023-03-20T11:14:25;5.75;;;1.65;;
22737;SDS011;11536;50.860;4.286;2023-03-20T11:16:56;9.00;;;2.00;;
22737;SDS011;11536;50.860;4.286;2023-03-20T11:19:25;8.45;;;2.00;;
22737;SDS011;11536;50.860;4.286;2023-03-20T11:21:52;7.10;;;1.70;;
22737;SDS011;11536;50.860;4.286;2023-03-20T11:27:11;8.88;;;1.88;;
22737;SDS011;11536;50.860;4.286;2023-03-20T11:29:42;7.95;;;1.75;;
22737;SDS011;11536;50.860;4.286;2023-03-20T11:35:15;6.57;;;2.08;;
22737;SDS011;11536;50.860;4.286;2023-03-20T11:37:50;10.07;;;1.80;;
22737;SDS011;11536;50.860;4.286;2023-03-20T11:40:21;7.80;;;2.00;;
22737;SDS011;11536;50.860;4.286;2023-03-20T11:43:09;11.30;;;1.98;;
22737;SDS011;11536;50.860;4.286;2023-03-20T11:45:37;6.47;;;1.95;;
22737;SDS011;11536;50.860;4.286;2023-03-20T11:48:18;7.63;;;1.92;;
22737;SDS011;11536;50.860;4.286;2023-03-20T11:50:58;9.68;;;2.35;;
22737;SDS011;11536;50.860;4.286;2023-03-20T11:53:35;6.75;;;1.85;;
22737;SDS011;11536;50.860;4.286;2023-03-20T11:58:38;6.82;;;2.00;;
22737;SDS011;11536;50.860;4.286;2023-03-20T12:01:38;9.02;;;2.15;;
22737;SDS011;11536;50.860;4.286;2023-03-20T12:04:17;9.30;;;2.13;;
22737;SDS011;11536;50.860;4.286;2023-03-20T12:07:00;8.48;;;2.40;;
22737;SDS011;11536;50.860;4.286;2023-03-20T12:09:53;11.88;;;2.58;;
22737;SDS011;11536;50.860;4.286;2023-03-20T12:12:39;10.90;;;2.50;;
22737;SDS011;11536;50.860;4.286;2023-03-20T12:23:17;6.78;;;2.25;;
22737;SDS011;11536;50.860;4.286;2023-03-20T12:31:15;8.00;;;2.50;;
22737;SDS011;11536;50.860;4.286;2023-03-20T12:36:24;7.50;;;2.15;;
22737;SDS011;11536;50.860;4.286;2023-03-20T12:39:00;6.82;;;2.40;;
22737;SDS011;11536;50.860;4.286;2023-03-20T12:41:37;8.00;;;2.70;;
22737;SDS011;11536;50.860;4.286;2023-03-20T12:49:32;6.88;;;2.50;;
22737;SDS011;11536;50.860;4.286;2023-03-20T12:57:52;9.63;;;3.00;;
22737;SDS011;11536;50.860;4.286;2023-03-20T13:00:31;9.40;;;2.75;;
22737;SDS011;11536;50.860;4.286;2023-03-20T13:06:01;9.52;;;2.60;;
22737;SDS011;11536;50.860;4.286;2023-03-20T13:14:09;10.75;;;2.78;;
22737;SDS011;11536;50.860;4.286;2023-03-20T13:16:54;10.15;;;2.55;;
22737;SDS011;11536;50.860;4.286;2023-03-20T13:19:37;9.05;;;3.13;;
22737;SDS011;11536;50.860;4.286;2023-03-20T13:22:29;13.35;;;3.67;;
22737;SDS011;11536;50.860;4.286;2023-03-20T13:25:04;10.02;;;2.78;;
22737;SDS011;11536;50.860;4.286;2023-03-20T13:27:48;13.80;;;2.90;;
22737;SDS011;11536;50.860;4.286;2023-03-20T13:30:43;8.50;;;3.13;;
22737;SDS011;11536;50.860;4.286;2023-03-20T13:38:36;11.82;;;3.60;;
22737;SDS011;11536;50.860;4.286;2023-03-20T13:41:07;11.48;;;2.83;;
22737;SDS011;11536;50.860;4.286;2023-03-20T13:43:42;11.77;;;2.40;;
22737;SDS011;11536;50.860;4.286;2023-03-20T13:46:23;7.45;;;2.72;;
22737;SDS011;11536;50.860;4.286;2023-03-20T13:48:50;11.93;;;3.38;;
22737;SDS011;11536;50.860;4.286;2023-03-20T13:56:48;10.23;;;2.83;;
22737;SDS011;11536;50.860;4.286;2023-03-20T14:02:44;9.43;;;2.85;;
22737;SDS011;11536;50.860;4.286;2023-03-20T14:05:20;8.50;;;2.95;;
22737;SDS011;11536;50.860;4.286;2023-03-20T14:07:47;11.48;;;2.90;;
22737;SDS011;11536;50.860;4.286;2023-03-20T14:12:52;11.30;;;3.60;;
22737;SDS011;11536;50.860;4.286;2023-03-20T14:15:20;11.75;;;3.47;;
22737;SDS011;11536;50.860;4.286;2023-03-20T14:17:47;13.90;;;3.40;;
22737;SDS011;11536;50.860;4.286;2023-03-20T14:20:27;7.97;;;3.15;;
22737;SDS011;11536;50.860;4.286;2023-03-20T14:22:58;8.43;;;3.30;;
22737;SDS011;11536;50.860;4.286;2023-03-20T14:25:24;11.63;;;3.55;;
22737;SDS011;11536;50.860;4.286;2023-03-20T14:32:59;11.52;;;3.63;;
22737;SDS011;11536;50.860;4.286;2023-03-20T14:35:38;12.60;;;3.83;;
22737;SDS011;11536;50.860;4.286;2023-03-20T14:41:16;17.20;;;3.80;;
22737;SDS011;11536;50.860;4.286;2023-03-20T14:46:39;12.25;;;3.63;;
22737;SDS011;11536;50.860;4.286;2023-03-20T14:52:08;12.10;;;3.80;;
22737;SDS011;11536;50.860;4.286;2023-03-20T14:54:53;8.50;;;3.40;;
22737;SDS011;11536;50.860;4.286;2023-03-20T14:57:29;11.68;;;4.13;;
22737;SDS011;11536;50.860;4.286;2023-03-20T14:59:56;10.88;;;3.13;;
22737;SDS011;11536;50.860;4.286;2023-03-20T15:02:29;13.45;;;3.67;;
22737;SDS011;11536;50.860;4.286;2023-03-20T15:05:00;16.48;;;3.83;;
22737;SDS011;11536;50.860;4.286;2023-03-20T15:07:27;10.52;;;3.83;;
22737;SDS011;11536;50.860;4.286;2023-03-20T15:09:56;10.60;;;3.97;;
22737;SDS011;11536;50.860;4.286;2023-03-20T15:12:25;11.07;;;3.70;;
22737;SDS011;11536;50.860;4.286;2023-03-20T15:14:57;9.27;;;3.17;;
22737;SDS011;11536;50.860;4.286;2023-03-20T15:17:43;12.15;;;4.40;;
22737;SDS011;11536;50.860;4.286;2023-03-20T15:20:13;12.40;;;3.75;;
22737;SDS011;11536;50.860;4.286;2023-03-20T15:22:46;15.32;;;4.05;;
22737;SDS011;11536;50.860;4.286;2023-03-20T15:25:15;10.50;;;3.63;;
22737;SDS011;11536;50.860;4.286;2023-03-20T15:27:42;9.73;;;3.60;;
22737;SDS011;11536;50.860;4.286;2023-03-20T15:30:09;9.43;;;3.05;;
22737;SDS011;11536;50.860;4.286;2023-03-20T15:32:42;9.75;;;3.08;;
22737;SDS011;11536;50.860;4.286;2023-03-20T15:35:10;11.40;;;3.58;;
22737;SDS011;11536;50.860;4.286;2023-03-20T15:37:39;12.05;;;3.42;;
22737;SDS011;11536;50.860;4.286;2023-03-20T15:40:12;10.45;;;3.58;;
22737;SDS011;11536;50.860;4.286;2023-03-20T15:42:51;11.13;;;3.70;;
22737;SDS011;11536;50.860;4.286;2023-03-20T15:45:25;13.47;;;3.77;;
22737;SDS011;11536;50.860;4.286;2023-03-20T15:47:59;10.57;;;3.50;;
22737;SDS011;11536;50.860;4.286;2023-03-20T15:50:32;9.38;;;3.60;;
22737;SDS011;11536;50.860;4.286;2023-03-20T15:53:00;10.45;;;4.05;;
22737;SDS011;11536;50.860;4.286;2023-03-20T15:55:28;10.95;;;3.47;;
22737;SDS011;11536;50.860;4.286;2023-03-20T15:57:57;8.95;;;4.00;;
22737;SDS011;11536;50.860;4.286;2023-03-20T16:00:30;12.25;;;3.90;;
22737;SDS011;11536;50.860;4.286;2023-03-20T16:03:04;11.02;;;4.20;;
22737;SDS011;11536;50.860;4.286;2023-03-20T16:05:33;12.80;;;4.38;;
22737;SDS011;11536;50.860;4.286;2023-03-20T16:08:11;10.40;;;3.88;;
22737;SDS011;11536;50.860;4.286;2023-03-20T16:10:47;11.63;;;3.58;;
22737;SDS011;11536;50.860;4.286;2023-03-20T16:13:13;10.35;;;3.42;;
22737;SDS011;11536;50.860;4.286;2023-03-20T16:15:42;9.35;;;3.90;;
22737;SDS011;11536;50.860;4.286;2023-03-20T16:18:09;12.23;;;4.65;;
22737;SDS011;11536;50.860;4.286;2023-03-20T16:20:39;8.38;;;3.15;;
22737;SDS011;11536;50.860;4.286;2023-03-20T16:23:22;12.05;;;4.03;;
22737;SDS011;11536;50.860;4.286;2023-03-20T16:25:52;10.97;;;3.53;;
22737;SDS011;11536;50.860;4.286;2023-03-20T16:28:26;7.03;;;2.83;;
22737;SDS011;11536;50.860;4.286;2023-03-20T16:30:54;13.23;;;4.18;;
22737;SDS011;11536;50.860;4.286;2023-03-20T16:33:28;12.25;;;4.38;;
22737;SDS011;11536;50.860;4.286;2023-03-20T16:35:54;10.27;;;3.85;;
22737;SDS011;11536;50.860;4.286;2023-03-20T16:38:27;8.20;;;3.50;;
22737;SDS011;11536;50.860;4.286;2023-03-20T16:41:12;12.18;;;3.60;;
22737;SDS011;11536;50.860;4.286;2023-03-20T16:43:58;9.52;;;3.65;;
22737;SDS011;11536;50.860;4.286;2023-03-20T16:46:29;10.25;;;3.22;;
22737;SDS011;11536;50.860;4.286;2023-03-20T16:48:55;14.63;;;4.35;;
22737;SDS011;11536;50.860;4.286;2023-03-20T16:51:23;11.82;;;3.63;;
22737;SDS011;11536;50.860;4.286;2023-03-20T16:53:58;15.38;;;4.63;;
22737;SDS011;11536;50.860;4.286;2023-03-20T16:59:04;9.75;;;3.45;;
22737;SDS011;11536;50.860;4.286;2023-03-20T17:01:31;12.05;;;3.72;;
22737;SDS011;11536;50.860;4.286;2023-03-20T17:06:58;12.07;;;3.40;;
22737;SDS011;11536;50.860;4.286;2023-03-20T17:09:29;14.25;;;3.35;;
22737;SDS011;11536;50.860;4.286;2023-03-20T17:11:56;12.90;;;4.20;;
22737;SDS011;11536;50.860;4.286;2023-03-20T17:14:37;9.40;;;3.58;;
22737;SDS011;11536;50.860;4.286;2023-03-20T17:17:08;12.13;;;4.00;;
22737;SDS011;11536;50.860;4.286;2023-03-20T17:19:39;10.07;;;3.33;;
22737;SDS011;11536;50.860;4.286;2023-03-20T17:22:16;9.07;;;3.67;;
22737;SDS011;11536;50.860;4.286;2023-03-20T17:24:52;11.77;;;3.05;;
22737;SDS011;11536;50.860;4.286;2023-03-20T17:27:18;13.10;;;3.92;;
22737;SDS011;11536;50.860;4.286;2023-03-20T17:29:45;9.07;;;2.78;;
22737;SDS011;11536;50.860;4.286;2023-03-20T17:32:20;8.65;;;2.92;;
22737;SDS011;11536;50.860;4.286;2023-03-20T17:34:48;12.07;;;3.10;;
22737;SDS011;11536;50.860;4.286;2023-03-20T17:37:15;11.88;;;3.00;;
22737;SDS011;11536;50.860;4.286;2023-03-20T17:40:09;11.77;;;3.92;;
22737;SDS011;11536;50.860;4.286;2023-03-20T17:42:41;10.13;;;3.22;;
22737;SDS011;11536;50.860;4.286;2023-03-20T17:45:11;9.40;;;3.08;;